Time,TemperatureF,DewpointF,PressureIn,WindDirection,WindDirectionDegrees,WindSpeedMPH,WindSpeedGustMPH,Humidity,HourlyPrecipIn,Conditions,Clouds,dailyrainin,SoftwareType,DateUTC
2016-02-11 00:11:00,51.2,17.0,29.78,NW,311,0.0,-999.0,26,-99.99,,,0.00,weatherlink.com 1.10,2016-02-11 07:11:00,
2016-02-11 00:26:00,50.1,17.0,29.77,North,355,3.0,-999.0,27,-99.99,,,0.00,weatherlink.com 1.10,2016-02-11 07:26:00,
2016-02-11 00:41:00,49.8,17.0,29.79,NW,310,2.0,-999.0,27,-99.99,,,0.00,weatherlink.com 1.10,2016-02-11 07:41:00,
2016-02-11 00:56:00,50.3,17.0,29.79,WNW,300,3.0,-999.0,27,-99.99,,,0.00,weatherlink.com 1.10,2016-02-11 07:56:00,
2016-02-11 01:26:00,50.3,16.0,29.78,WNW,299,1.0,-999.0,26,-99.99,,,0.00,weatherlink.com 1.10,2016-02-11 08:26:00,
2016-02-11 01:41:00,50.4,17.0,29.80,NW,306,2.0,-999.0,26,-99.99,,,0.00,weatherlink.com 1.10,2016-02-11 08:41:00,
2016-02-11 01:56:00,49.7,16.0,29.79,NW,306,0.0,-999.0,26,-99.99,,,0.00,weatherlink.com 1.10,2016-02-11 08:56:00,
2016-02-11 02:11:00,49.3,16.0,29.78,NW,306,0.0,-999.0,27,-99.99,,,0.00,weatherlink.com 1.10,2016-02-11 09:11:00,
2016-02-11 02:26:00,48.5,16.0,29.79,SW,227,0.0,-999.0,27,-99.99,,,0.00,weatherlink.com 1.10,2016-02-11 09:26:00,
2016-02-11 02:41:00,49.5,17.0,29.79,West,265,1.0,-999.0,27,-99.99,,,0.00,weatherlink.com 1.10,2016-02-11 09:41:00,
2016-02-11 02:57:00,50.2,16.0,29.78,WSW,257,6.0,-999.0,26,-99.99,,,0.00,weatherlink.com 1.10,2016-02-11 09:57:00,
2016-02-11 03:12:00,50.2,16.0,29.78,West,262,0.0,-999.0,26,-99.99,,,0.00,weatherlink.com 1.10,2016-02-11 10:12:00,
2016-02-11 03:27:00,49.1,17.0,29.79,WSW,246,0.0,-999.0,28,-99.99,,,0.00,weatherlink.com 1.10,2016-02-11 10:27:00,
2016-02-11 03:42:00,45.5,19.0,29.79,SSE,151,7.0,-999.0,35,-99.99,,,0.00,weatherlink.com 1.10,2016-02-11 10:42:00,
2016-02-11 03:57:00,40.0,19.0,29.82,SSE,153,0.0,-999.0,43,-99.99,,,0.00,weatherlink.com 1.10,2016-02-11 10:57:00,
2016-02-11 04:12:00,39.4,18.0,29.84,SE,146,5.0,-999.0,43,-99.99,,,0.00,weatherlink.com 1.10,2016-02-11 11:12:00,
2016-02-11 04:27:00,40.2,19.0,29.85,SSE,154,1.0,-999.0,42,-99.99,,,0.00,weatherlink.com 1.10,2016-02-11 11:27:00,
2016-02-11 04:42:00,40.9,18.0,29.84,South,178,2.0,-999.0,40,-99.99,,,0.00,weatherlink.com 1.10,2016-02-11 11:42:00,
2016-02-11 04:57:00,42.2,18.0,29.84,NNE,30,3.0,-999.0,38,-99.99,,,0.00,weatherlink.com 1.10,2016-02-11 11:57:00,
2016-02-11 05:27:00,44.6,18.0,29.84,SW,227,0.0,-999.0,35,-99.99,,,0.00,weatherlink.com 1.10,2016-02-11 12:27:00,
2016-02-11 05:42:00,43.6,19.0,29.82,SSE,150,4.0,-999.0,37,-99.99,,,0.00,weatherlink.com 1.10,2016-02-11 12:42:00,
2016-02-11 05:57:00,42.7,19.0,29.83,South,175,1.0,-999.0,38,-99.99,,,0.00,weatherlink.com 1.10,2016-02-11 12:57:00,
2016-02-11 06:12:00,42.4,19.0,29.83,SE,143,5.0,-999.0,39,-99.99,,,0.00,weatherlink.com 1.10,2016-02-11 13:12:00,
2016-02-11 06:27:00,41.2,19.0,29.84,South,185,1.0,-999.0,41,-99.99,,,0.00,weatherlink.com 1.10,2016-02-11 13:27:00,
2016-02-11 06:42:00,40.7,19.0,29.85,South,182,4.0,-999.0,42,-99.99,,,0.00,weatherlink.com 1.10,2016-02-11 13:42:00,
2016-02-11 06:57:00,41.1,19.0,29.85,WNW,284,2.0,-999.0,42,-99.99,,,0.00,weatherlink.com 1.10,2016-02-11 13:57:00,
2016-02-11 07:12:00,42.9,18.0,29.85,SW,221,0.0,-999.0,37,-99.99,,,0.00,weatherlink.com 1.10,2016-02-11 14:12:00,
2016-02-11 07:27:00,45.5,20.0,29.86,WSW,244,0.0,-999.0,36,-99.99,,,0.00,weatherlink.com 1.10,2016-02-11 14:27:00,
2016-02-11 08:12:00,49.5,21.0,29.81,SSE,150,5.0,-999.0,33,-99.99,,,0.00,weatherlink.com 1.10,2016-02-11 15:12:00,
2016-02-11 08:27:00,49.8,21.0,29.84,SSE,159,2.0,-999.0,32,-99.99,,,0.00,weatherlink.com 1.10,2016-02-11 15:27:00,
2016-02-11 08:42:00,52.6,23.0,29.82,SW,217,3.0,-999.0,32,-99.99,,,0.00,weatherlink.com 1.10,2016-02-11 15:42:00,
2016-02-11 08:57:00,56.0,20.0,29.81,SW,236,0.0,-999.0,25,-99.99,,,0.00,weatherlink.com 1.10,2016-02-11 15:57:00,
2016-02-11 09:12:00,58.5,21.0,29.79,WNW,286,0.0,-999.0,23,-99.99,,,0.00,weatherlink.com 1.10,2016-02-11 16:12:00,
2016-02-11 09:27:00,60.1,22.0,29.78,WNW,289,3.0,-999.0,23,-99.99,,,0.00,weatherlink.com 1.10,2016-02-11 16:27:00,
2016-02-11 09:42:00,61.5,22.0,29.78,WNW,299,0.0,-999.0,22,-99.99,,,0.00,weatherlink.com 1.10,2016-02-11 16:42:00,
2016-02-11 09:57:00,60.5,23.0,29.77,West,270,8.0,-999.0,24,-99.99,,,0.00,weatherlink.com 1.10,2016-02-11 16:57:00,
2016-02-11 10:12:00,60.8,23.0,29.77,WNW,288,3.0,-999.0,23,-99.99,,,0.00,weatherlink.com 1.10,2016-02-11 17:12:00,
2016-02-11 10:27:00,62.8,22.0,29.79,West,271,0.0,-999.0,21,-99.99,,,0.00,weatherlink.com 1.10,2016-02-11 17:27:00,
2016-02-11 10:42:00,62.7,22.0,29.78,NW,324,16.0,-999.0,21,-99.99,,,0.00,weatherlink.com 1.10,2016-02-11 17:42:00,
2016-02-11 10:57:00,62.6,22.0,29.76,NW,308,7.0,-999.0,21,-99.99,,,0.00,weatherlink.com 1.10,2016-02-11 17:57:00,
2016-02-11 11:12:00,62.7,23.0,29.77,West,277,8.0,-999.0,22,-99.99,,,0.00,weatherlink.com 1.10,2016-02-11 18:12:00,
2016-02-11 11:27:00,64.1,23.0,29.77,WNW,302,10.0,-999.0,21,-99.99,,,0.00,weatherlink.com 1.10,2016-02-11 18:27:00,
2016-02-11 11:42:00,65.1,24.0,29.75,NW,319,6.0,-999.0,21,-99.99,,,0.00,weatherlink.com 1.10,2016-02-11 18:42:00,
2016-02-11 11:57:00,65.5,24.0,29.75,NNW,331,5.0,-999.0,21,-99.99,,,0.00,weatherlink.com 1.10,2016-02-11 18:57:00,
2016-02-11 12:12:00,65.8,26.0,29.73,NW,319,18.0,-999.0,22,-99.99,,,0.00,weatherlink.com 1.10,2016-02-11 19:12:00,
2016-02-11 12:27:00,65.5,26.0,29.73,WNW,295,10.0,-999.0,22,-99.99,,,0.00,weatherlink.com 1.10,2016-02-11 19:27:00,
2016-02-11 12:42:00,63.6,26.0,29.73,West,268,14.0,-999.0,24,-99.99,,,0.00,weatherlink.com 1.10,2016-02-11 19:42:00,
2016-02-11 12:57:00,63.8,26.0,29.74,NW,320,7.0,-999.0,24,-99.99,,,0.00,weatherlink.com 1.10,2016-02-11 19:57:00,
2016-02-11 13:12:00,64.4,28.0,29.73,NNW,327,13.0,-999.0,25,-99.99,,,0.00,weatherlink.com 1.10,2016-02-11 20:12:00,
2016-02-11 13:27:00,63.6,27.0,29.72,NW,321,20.0,-999.0,25,-99.99,,,0.00,weatherlink.com 1.10,2016-02-11 20:27:00,
2016-02-11 13:42:00,63.0,27.0,29.73,West,274,9.0,-999.0,26,-99.99,,,0.00,weatherlink.com 1.10,2016-02-11 20:42:00,
2016-02-11 13:57:00,62.8,27.0,29.73,WNW,303,13.0,-999.0,26,-99.99,,,0.00,weatherlink.com 1.10,2016-02-11 20:57:00,
2016-02-11 14:12:00,62.4,27.0,29.72,WNW,291,12.0,-999.0,26,-99.99,,,0.00,weatherlink.com 1.10,2016-02-11 21:12:00,
2016-02-11 14:27:00,62.4,28.0,29.73,NW,315,14.0,-999.0,27,-99.99,,,0.00,weatherlink.com 1.10,2016-02-11 21:27:00,
2016-02-11 14:42:00,62.5,28.0,29.73,West,277,13.0,-999.0,27,-99.99,,,0.00,weatherlink.com 1.10,2016-02-11 21:42:00,
2016-02-11 14:57:00,62.4,28.0,29.73,WNW,294,10.0,-999.0,27,-99.99,,,0.00,weatherlink.com 1.10,2016-02-11 21:57:00,
2016-02-11 15:12:00,62.9,28.0,29.73,WNW,303,21.0,-999.0,27,-99.99,,,0.00,weatherlink.com 1.10,2016-02-11 22:12:00,
2016-02-11 15:27:00,62.7,29.0,29.79,NW,316,9.0,-999.0,28,-99.99,,,0.00,weatherlink.com 1.10,2016-02-11 22:27:00,
2016-02-11 15:42:00,62.2,29.0,29.79,NW,317,9.0,-999.0,28,-99.99,,,0.00,weatherlink.com 1.10,2016-02-11 22:42:00,
2016-02-11 15:57:00,61.9,29.0,29.80,WNW,300,11.0,-999.0,29,-99.99,,,0.00,weatherlink.com 1.10,2016-02-11 22:57:00,
2016-02-11 16:12:00,61.5,29.0,29.80,NW,325,19.0,-999.0,29,-99.99,,,0.00,weatherlink.com 1.10,2016-02-11 23:12:00,
2016-02-11 16:27:00,62.4,29.0,29.80,NW,311,10.0,-999.0,28,-99.99,,,0.00,weatherlink.com 1.10,2016-02-11 23:27:00,
2016-02-11 16:42:00,62.3,29.0,29.81,NW,316,13.0,-999.0,28,-99.99,,,0.00,weatherlink.com 1.10,2016-02-11 23:42:00,
2016-02-11 16:57:00,60.9,28.0,29.81,NNW,342,15.0,-999.0,29,-99.99,,,0.00,weatherlink.com 1.10,2016-02-11 23:57:00,
2016-02-11 17:12:00,60.4,28.0,29.84,NW,318,8.0,-999.0,29,-99.99,,,0.00,weatherlink.com 1.10,2016-02-12 00:12:00,
2016-02-11 17:27:00,59.5,27.0,29.84,NW,310,9.0,-999.0,29,-99.99,,,0.00,weatherlink.com 1.10,2016-02-12 00:27:00,
2016-02-11 17:42:00,58.7,27.0,29.86,NNW,331,14.0,-999.0,30,-99.99,,,0.00,weatherlink.com 1.10,2016-02-12 00:42:00,
2016-02-11 17:58:00,58.4,26.0,29.88,NW,307,12.0,-999.0,29,-99.99,,,0.00,weatherlink.com 1.10,2016-02-12 00:58:00,
2016-02-11 18:13:00,55.3,28.0,29.90,ENE,67,4.0,-999.0,35,-99.99,,,0.00,weatherlink.com 1.10,2016-02-12 01:13:00,
2016-02-11 18:43:00,49.7,28.0,29.98,ESE,121,0.0,-999.0,44,-99.99,,,0.00,weatherlink.com 1.10,2016-02-12 01:43:00,
2016-02-11 18:58:00,48.5,29.0,29.99,SSE,160,9.0,-999.0,47,-99.99,,,0.00,weatherlink.com 1.10,2016-02-12 01:58:00,
2016-02-11 19:13:00,48.0,29.0,30.00,SE,145,7.0,-999.0,48,-99.99,,,0.00,weatherlink.com 1.10,2016-02-12 02:13:00,
2016-02-11 19:28:00,46.8,29.0,29.95,SE,136,2.0,-999.0,50,-99.99,,,0.00,weatherlink.com 1.10,2016-02-12 02:28:00,
2016-02-11 19:43:00,47.7,29.0,29.97,South,175,7.0,-999.0,48,-99.99,,,0.00,weatherlink.com 1.10,2016-02-12 02:43:00,
2016-02-11 19:58:00,47.3,29.0,29.95,SE,145,10.0,-999.0,49,-99.99,,,0.00,weatherlink.com 1.10,2016-02-12 02:58:00,
2016-02-11 20:13:00,46.3,28.0,29.96,South,188,5.0,-999.0,50,-99.99,,,0.00,weatherlink.com 1.10,2016-02-12 03:13:00,
2016-02-11 20:28:00,46.9,28.0,29.94,South,178,5.0,-999.0,49,-99.99,,,0.00,weatherlink.com 1.10,2016-02-12 03:28:00,
2016-02-11 20:43:00,46.7,28.0,29.94,South,173,7.0,-999.0,49,-99.99,,,0.00,weatherlink.com 1.10,2016-02-12 03:43:00,
2016-02-11 20:58:00,47.1,29.0,29.93,SSW,192,6.0,-999.0,49,-99.99,,,0.00,weatherlink.com 1.10,2016-02-12 03:58:00,
2016-02-11 21:13:00,46.4,28.0,29.94,SE,134,5.0,-999.0,50,-99.99,,,0.00,weatherlink.com 1.10,2016-02-12 04:13:00,
2016-02-11 21:28:00,46.1,29.0,29.92,SSE,148,6.0,-999.0,51,-99.99,,,0.00,weatherlink.com 1.10,2016-02-12 04:28:00,
2016-02-11 21:43:00,46.0,28.0,29.91,SSE,154,9.0,-999.0,50,-99.99,,,0.00,weatherlink.com 1.10,2016-02-12 04:43:00,
2016-02-11 21:58:00,44.9,28.0,29.92,SSE,167,4.0,-999.0,52,-99.99,,,0.00,weatherlink.com 1.10,2016-02-12 04:58:00,
2016-02-11 22:13:00,43.6,28.0,29.92,SSW,208,1.0,-999.0,55,-99.99,,,0.00,weatherlink.com 1.10,2016-02-12 05:13:00,